This is the latest recevied weather packets stored in our database for station/object YO4ISC-13. If no packets are shown the sender has not sent any weather packets the latest 10 day(s).
| Time | Temp. | Humidity | Pressure | Rain* | Wind** | Luminosity | Snow |
|---|---|---|---|---|---|---|---|
| 1777972802 | 16.67° C | 49% | 1018 hPa | - | - | - | - |
| 1777972202 | 16.67° C | 47% | 1018 hPa | - | - | - | - |
| 1777971601 | 16.67° C | 51% | 1018 hPa | - | - | - | - |
| 1777971002 | 16.67° C | 49% | 1018 hPa | - | - | - | - |
| 1777970401 | 17.22° C | 46% | 1018 hPa | - | - | - | - |
| 1777969802 | 17.78° C | 40% | 1018 hPa | - | - | - | - |
| 1777969202 | 17.22° C | 40% | 1018 hPa | - | - | - | - |
| 1777968601 | 17.22° C | 41% | 1018 hPa | - | - | - | - |
| 1777968002 | 17.22° C | 42% | 1018 hPa | - | - | - | - |
| 1777967402 | 17.22° C | 42% | 1018 hPa | - | - | - | - |
| 1777966802 | 17.22° C | 44% | 1018 hPa | - | - | - | - |
| 1777966202 | 17.22° C | 44% | 1018 hPa | - | - | - | - |
| 1777965602 | 17.22° C | 45% | 1018 hPa | - | - | - | - |
| 1777965001 | 16.67° C | 43% | 1018 hPa | - | - | - | - |
| 1777964402 | 16.67° C | 46% | 1018 hPa | - | - | - | - |
| 1777963802 | 16.11° C | 47% | 1018 hPa | - | - | - | - |
| 1777963201 | 15.56° C | 51% | 1018 hPa | - | - | - | - |
| 1777962602 | 15.56° C | 51% | 1018 hPa | - | - | - | - |
| 1777962002 | 15° C | 54% | 1018 hPa | - | - | - | - |
| 1777961401 | 14.44° C | 58% | 1018 hPa | - | - | - | - |
| 1777960803 | 14.44° C | 56% | 1018 hPa | - | - | - | - |
| 1777960202 | 13.89° C | 59% | 1018 hPa | - | - | - | - |
| 1777959602 | 13.89° C | 59% | 1018 hPa | - | - | - | - |
| 1777959001 | 13.33° C | 62% | 1018 hPa | - | - | - | - |
| 1777958402 | 12.78° C | 62% | 1018 hPa | - | - | - | - |
* Rain since midnight (hover to see other rain measurements)
** Current wind speed in m/s (hover to see current wind gust speed)